Sparta, Ohio
Current Conditions -  °F | °C
As of 10:16 PM on Saturday 20 Dec 2014 (Local Time) from K4I3 Reporting Station
Scattered Clouds Scattered Clouds  
Wind Chill: 28°   Ceiling: Unl
Heat Index: 28°   Visibility: 7mi
Dew Point: 25°   Wind: 0mph
Humidity: 86%   Direction: NA
Pressure: 30.26"   Gusts: NA
Location:  40.39°N, 82.7°W
Report Text: K4I3 210316Z AUTO 00000KT 7SM SCT023 M02/M04 A3026 RMK AO2
Loading
Personal Weather Stations






























Interactive Weather Map New forecast layout! Learn more

10-Day Weather Forecast

Advertisements
Track Severe Weather on mobile